ENALENHD

Guest
Details From ENAL - Alesund lufthavn - Vigra
To ENHD - Haugesund Lufthavn Karmoy
Flight Number -
Tags generated
Created
Modified
Stats Distance 196 nm / 362 km
Max Altitude 18,500 ft / 5,639 m
Waypoints 4
Social Downloads 1
Likes 0
Share VATSIM

Download

Looking for another format? Having issues loading an existing format? Contact us
Advertisement - Login to hide

Notes

Basic altitude profile: - Ascent Rate: 2500ft/min - Ascent Speed: 250kts - Cruise Altitude: 10000ft - Cruise Speed: 420kts - Descent Rate: 1500ft/min - Descent Speed: 250kts

Route

ENAL AMKAR TB1 FLE ENHD

ID Type Via Altitude Latitude Longitude Leg Dist Tot Dist Heading (true) Name
O ENAL APT - 0 ft / 0 m 62.56037˚ 6.11017˚ - 0 nm - Alesund lufthavn - Vigra
AMKAR FIX - 10,000 ft / 3,048 m 62.00000˚ 5.82556˚ 34 nm 34 nm 193° / 193° -
FLE VOR TB1 (AWY-HI) 18,500 ft / 5,639 m 60.30004˚ 5.21359˚ 103 nm 138 nm 190° / 190° -
O ENHD APT - 0 ft / 0 m 59.34402˚ 5.21087˚ 57 nm 195 nm 180° / 180° Haugesund Lufthavn Karmoy

Altitude Profile

Advertisement - Login to hide

Weather


0- 5 10 15 20 25 30 35+ Temperature / ° C

Clouds and Precipitation
Forecast for 2017-12-18 12:00 UTC. Updated 2 hours ago

Ground ~20,000 ft ~40,000 ft Winds

ENAL

Details ICAO ENAL (AES)
Name Alesund lufthavn - Vigra
Region Norway
Timezone Europe/Oslo (UTC+1.0)
Stats Elevation 69 ft / 21 m (AMSL)
Location 62.560371° 6.110165°
Runways 1
Magnetic Variation 1.164° E

METAR

ENAL 181050Z 25011KT 9999 VCSH FEW010 SCT040 BKN051 05/01 Q1016

Decode

TAF

Not found

Departure Runways

ID Width Length Bearing (true) Bearing (mag) Surface Threshold Offset Overrun Length
07 148 ft / 45 m 7,563 ft / 2,305 m 64.61° 63.45° Asphalt 492 ft / 150 m 0 ft / 0 m
25 148 ft / 45 m 7,563 ft / 2,305 m 244.65° 243.49° Asphalt 758 ft / 231 m 0 ft / 0 m

ENHD

Details ICAO ENHD (HAU)
Name Haugesund Lufthavn Karmoy
Region Norway
Timezone Europe/Oslo (UTC+1.0)
Stats Elevation 76 ft / 23 m (AMSL)
Location 59.344015° 5.210871°
Runways 1
Magnetic Variation 0.890° E

METAR

ENHD 181050Z 33007KT 9999 SCT041 06/01 Q1021

Decode

TAF

Not found

Destination Runways

ID Width Length Bearing (true) Bearing (mag) Surface Threshold Offset Overrun Length
14 148 ft / 45 m 6,940 ft / 2,115 m 134.35° 133.46° Asphalt 197 ft / 60 m 0 ft / 0 m
32 148 ft / 45 m 6,940 ft / 2,115 m 314.38° 313.49° Asphalt 197 ft / 60 m 0 ft / 0 m

Approach Navaids

Runway Type Ident Frequency Range Bearing (true) Bearing (mag) Slope Elevation
14 Localiser HD 109.10 MHz 18 nm / 33 km 134.37° 133.48° - 96 ft / 29 m (AMSL)
14 Glidescope HD 109.10 MHz 10 nm / 19 km 134.36° 133.47° 3.00° 76 ft / 23 m (AMSL)

Popular Alternatives